Time;durP1;ratioP1;P1;durP2;ratioP2;P2;SDS_P1;SDS_P2;PMS_P1;PMS_P2;Temp;Humidity;BMP_temperature;BMP_pressure;BME280_temperature;BME280_humidity;BME280_pressure;Samples;Min_cycle;Max_cycle;Signal;HPM_P1;HPM_P2
2021/08/18 18:09:12;;;;;;;4.80;3.88;;;15.80;74.40;;;;;;4979831;28;20057;-68
2021/08/18 18:12:18;;;;;;;17.73;13.82;;;15.80;74.30;;;;;;4974067;28;20085;-68
2021/08/18 18:15:24;;;;;;;3.97;3.55;;;15.80;74.60;;;;;;4972926;28;20472;-70
2021/08/18 18:18:30;;;;;;;4.25;1.45;;;15.80;74.20;;;;;;4970528;28;20029;-69
2021/08/18 18:21:36;;;;;;;3.80;2.25;;;15.80;74.10;;;;;;4969805;28;20015;-69
2021/08/18 18:24:42;;;;;;;5.22;1.17;;;15.70;73.80;;;;;;4970191;28;20026;-69
2021/08/18 18:27:48;;;;;;;2.38;1.33;;;15.80;74.10;;;;;;4970765;28;20046;-69
2021/08/18 18:30:54;;;;;;;5.03;1.70;;;15.80;73.60;;;;;;4969983;28;20035;-69
2021/08/18 18:34:00;;;;;;;1.88;1.38;;;15.70;73.90;;;;;;4969832;28;20098;-67
2021/08/18 18:37:06;;;;;;;21.73;18.77;;;15.70;73.40;;;;;;4971935;28;20069;-69
2021/08/18 18:40:12;;;;;;;6.43;3.47;;;15.70;73.10;;;;;;4969998;28;20033;-69
2021/08/18 18:42:40;;;;;;;2.72;1.35;;;15.70;72.90;;;;;;4970917;28;20010;-69
2021/08/18 18:45:08;;;;;;;4.30;1.20;;;15.70;72.90;;;;;;4971448;28;20118;-68
2021/08/18 18:47:34;;;;;;;3.70;1.17;;;15.70;73.10;;;;;;4970249;28;20838;-68
2021/08/18 18:50:01;;;;;;;2.85;1.17;;;15.80;73.00;;;;;;4970901;28;20033;-69
2021/08/18 18:52:27;;;;;;;6.20;1.70;;;15.80;72.70;;;;;;4971433;28;20061;-69
2021/08/18 18:54:54;;;;;;;4.32;2.35;;;15.80;73.00;;;;;;4968532;28;20030;-69
2021/08/18 18:57:20;;;;;;;3.58;1.42;;;15.80;72.90;;;;;;4969720;28;20119;-68
2021/08/18 18:59:47;;;;;;;3.38;1.55;;;15.80;73.00;;;;;;4969272;28;20038;-68
2021/08/18 19:02:13;;;;;;;2.78;1.17;;;15.70;72.70;;;;;;4970646;28;20073;-69
2021/08/18 19:04:41;;;;;;;6.38;1.85;;;15.70;72.20;;;;;;4970081;28;20030;-68
2021/08/18 19:07:09;;;;;;;2.22;2.03;;;15.70;72.00;;;;;;4970283;28;20073;-68
2021/08/18 19:09:36;;;;;;;3.47;1.50;;;15.70;72.00;;;;;;4986578;28;20038;-68
2021/08/18 19:12:03;;;;;;;3.63;1.67;;;15.60;71.90;;;;;;4988916;28;20014;-68
2021/08/18 19:14:32;;;;;;;2.17;1.05;;;15.60;72.10;;;;;;4988085;28;20106;-68
2021/08/18 19:16:59;;;;;;;2.97;1.15;;;15.60;72.30;;;;;;4989008;28;20015;-68
2021/08/18 19:19:25;;;;;;;3.30;1.45;;;15.60;72.30;;;;;;4989246;28;20030;-68
2021/08/18 19:21:52;;;;;;;4.57;1.27;;;15.60;71.90;;;;;;4988113;28;20025;-68
2021/08/18 19:24:19;;;;;;;3.40;1.40;;;15.60;71.60;;;;;;4966869;28;20019;-68
2021/08/18 19:26:45;;;;;;;2.05;1.20;;;15.60;71.60;;;;;;4988654;28;20406;-68
2021/08/18 19:29:12;;;;;;;4.03;1.55;;;15.60;71.60;;;;;;4986783;28;20108;-68
2021/08/18 19:31:38;;;;;;;2.85;1.02;;;15.60;71.50;;;;;;4988604;28;20504;-68
2021/08/18 19:34:05;;;;;;;3.70;1.10;;;15.60;71.40;;;;;;4988509;28;20026;-68
2021/08/18 19:36:32;;;;;;;1.48;1.10;;;15.70;71.20;;;;;;4988792;28;20096;-68
2021/08/18 19:38:59;;;;;;;3.08;1.00;;;15.70;70.80;;;;;;4988102;28;20022;-68
2021/08/18 19:41:25;;;;;;;4.22;1.83;;;15.70;69.80;;;;;;4988524;28;20381;-68
2021/08/18 19:43:52;;;;;;;1.73;1.00;;;15.70;69.90;;;;;;4987825;28;20039;-69
2021/08/18 19:46:18;;;;;;;2.63;1.30;;;15.60;70.10;;;;;;4991356;28;20482;-68
2021/08/18 19:48:45;;;;;;;4.75;1.00;;;15.50;70.30;;;;;;4987684;28;20513;-68
2021/08/18 19:51:15;;;;;;;2.20;0.88;;;15.50;70.30;;;;;;4988840;28;20018;-68
2021/08/18 19:53:42;;;;;;;3.47;1.10;;;15.50;70.50;;;;;;4987284;28;20596;-68
2021/08/18 19:56:08;;;;;;;3.92;1.45;;;15.50;70.10;;;;;;4966032;28;20481;-69
2021/08/18 19:58:36;;;;;;;2.90;1.15;;;15.50;69.80;;;;;;4988514;28;20104;-69
2021/08/18 20:01:04;;;;;;;3.65;1.27;;;15.50;70.10;;;;;;4987105;28;20122;-68
